Condon, Oregon
Current Conditions -  °F | °C
As of 7:53 AM on Thursday 27 Nov 2014 (Local Time) from KDLS Reporting Station
Overcast Overcast  
Wind Chill: 51°   Ceiling: 7000
Heat Index: 51°   Visibility: 10mi
Dew Point: 46°   Wind: 7mph
Humidity: 83%   Direction: 200°SSW
Pressure: 29.94"   Gusts: NA
Location:  45.23°N, 120.19°W
Report Text: KDLS 271553Z AUTO 20006KT 10SM OVC070 11/08 A2994 RMK AO2 SLP139 T01060078
Loading
Personal Weather Stations






























Interactive Weather Map New forecast layout! Learn more

10-Day Weather Forecast

Advertisements
Track Severe Weather on mobile